Time;durP1;ratioP1;P1;durP2;ratioP2;P2;SDS_P1;SDS_P2;PMS_P1;PMS_P2;Temp;Humidity;BMP_temperature;BMP_pressure;BME280_temperature;BME280_humidity;BME280_pressure;Samples;Min_cycle;Max_cycle;Signal;HPM_P1;HPM_P2
2023/12/01 00:01:17;;;;;;;1.60;1.37;;;11.40;99.90;;;;;;5105594;28;20235;-79
2023/12/01 00:03:43;;;;;;;0.30;0.27;;;11.50;99.90;;;;;;5105399;28;20256;-79
2023/12/01 00:06:09;;;;;;;0.30;0.27;;;11.50;99.90;;;;;;5121224;28;20180;-77
2023/12/01 00:08:34;;;;;;;0.30;0.20;;;11.50;99.90;;;;;;5105300;28;20458;-77
2023/12/01 00:11:00;;;;;;;0.30;0.30;;;11.50;99.90;;;;;;5105324;28;20411;-78
2023/12/01 00:13:26;;;;;;;0.30;0.20;;;11.50;99.90;;;;;;5105533;28;20329;-77
2023/12/01 00:15:51;;;;;;;0.30;0.20;;;11.50;99.90;;;;;;5121233;28;20435;-79
2023/12/01 00:18:17;;;;;;;0.30;0.20;;;11.50;99.90;;;;;;5105446;28;20192;-79
2023/12/01 00:20:43;;;;;;;1.03;1.03;;;11.50;99.90;;;;;;5120850;28;20242;-77
2023/12/01 00:23:09;;;;;;;0.30;0.20;;;11.60;99.90;;;;;;5123334;27;20260;-79
2023/12/01 00:25:34;;;;;;;0.30;0.30;;;11.60;99.90;;;;;;5109220;28;20194;-79
2023/12/01 00:28:00;;;;;;;0.93;0.93;;;11.60;99.90;;;;;;5124383;27;20818;-77
2023/12/01 00:30:29;;;;;;;0.50;0.47;;;11.60;99.90;;;;;;5124867;27;20806;-77
2023/12/01 00:32:55;;;;;;;0.30;0.20;;;11.60;99.90;;;;;;5108878;28;20302;-78
2023/12/01 00:35:21;;;;;;;0.30;0.20;;;11.60;99.90;;;;;;5109022;28;20184;-77
2023/12/01 00:37:47;;;;;;;10.90;4.90;;;11.60;99.90;;;;;;5124390;27;20175;-77
2023/12/01 00:40:13;;;;;;;0.30;0.30;;;11.60;99.90;;;;;;5124779;27;20227;-77
2023/12/01 00:42:38;;;;;;;0.30;0.20;;;11.50;99.90;;;;;;5108732;28;20184;-79
2023/12/01 00:45:05;;;;;;;0.30;0.20;;;11.50;99.90;;;;;;5107979;28;20183;-79
2023/12/01 00:47:31;;;;;;;0.30;0.20;;;11.50;99.90;;;;;;5124075;27;20445;-77
2023/12/01 00:49:57;;;;;;;0.30;0.20;;;11.40;99.90;;;;;;5108773;28;20657;-77
2023/12/01 00:52:23;;;;;;;0.30;0.20;;;11.30;99.90;;;;;;5108299;28;20174;-77
2023/12/01 00:54:48;;;;;;;0.30;0.20;;;11.30;99.90;;;;;;5108124;28;20203;-77
2023/12/01 00:57:14;;;;;;;0.30;0.30;;;11.20;99.90;;;;;;5108250;28;20168;-77
2023/12/01 00:59:40;;;;;;;3.73;3.60;;;11.20;99.90;;;;;;5123863;27;20228;-78
2023/12/01 01:02:05;;;;;;;0.30;0.30;;;11.10;99.90;;;;;;5108387;28;20462;-79
2023/12/01 01:04:31;;;;;;;0.30;0.20;;;11.00;99.90;;;;;;5108218;27;20207;-78
2023/12/01 01:06:57;;;;;;;0.30;0.20;;;10.90;99.90;;;;;;5123938;27;20171;-79
2023/12/01 01:09:23;;;;;;;0.90;0.87;;;10.90;99.90;;;;;;5107755;28;20222;-77
2023/12/01 01:11:49;;;;;;;0.65;0.65;;;10.80;99.90;;;;;;5123954;27;20637;-77
2023/12/01 01:14:14;;;;;;;0.30;0.20;;;10.80;99.90;;;;;;5108044;28;20195;-77
2023/12/01 01:16:40;;;;;;;0.30;0.20;;;10.70;99.90;;;;;;5108165;28;20176;-80
2023/12/01 01:19:06;;;;;;;1.57;1.57;;;10.70;99.90;;;;;;5123832;27;20696;-78
2023/12/01 01:21:31;;;;;;;0.30;0.20;;;10.60;99.90;;;;;;5123723;27;20234;-80
2023/12/01 01:23:57;;;;;;;0.30;0.20;;;10.60;99.90;;;;;;5107952;28;20462;-78
2023/12/01 01:26:22;;;;;;;0.30;0.20;;;10.50;99.90;;;;;;5123494;27;20176;-78
2023/12/01 01:28:48;;;;;;;0.50;0.50;;;10.50;99.90;;;;;;5107669;28;20444;-80
2023/12/01 01:31:14;;;;;;;0.30;0.20;;;10.50;99.90;;;;;;5123370;27;20188;-79
2023/12/01 01:33:39;;;;;;;0.30;0.30;;;10.40;99.90;;;;;;5106160;28;20430;-78
2023/12/01 01:36:06;;;;;;;0.30;0.20;;;10.40;99.90;;;;;;5123597;27;20267;-79
2023/12/01 01:38:32;;;;;;;1.50;1.40;;;10.30;99.90;;;;;;5107627;28;20192;-78
2023/12/01 01:40:58;;;;;;;0.65;0.65;;;10.30;99.90;;;;;;5107430;28;20216;-80
2023/12/01 01:43:24;;;;;;;0.30;0.30;;;10.30;99.90;;;;;;5106748;28;20191;-80
2023/12/01 01:46:11;;;;;;;1.83;1.73;;;10.20;99.90;;;;;;5106811;28;20177;-78
2023/12/01 01:48:38;;;;;;;0.30;0.20;;;10.20;99.90;;;;;;5106087;28;20196;-79
2023/12/01 01:51:05;;;;;;;0.30;0.20;;;10.20;99.90;;;;;;5107224;28;20180;-78
2023/12/01 01:53:32;;;;;;;0.30;0.20;;;10.20;99.90;;;;;;5122890;27;20261;-79
2023/12/01 01:55:58;;;;;;;1.20;1.20;;;10.10;99.90;;;;;;5123170;27;20179;-80
2023/12/01 01:58:25;;;;;;;1.80;1.73;;;10.10;99.90;;;;;;5107101;28;20200;-78
2023/12/01 02:00:51;;;;;;;0.98;0.98;;;10.10;99.90;;;;;;5123193;27;20220;-80
2023/12/01 02:03:19;;;;;;;0.32;0.30;;;10.10;99.90;;;;;;5122500;27;20545;-79
2023/12/01 02:05:47;;;;;;;2.97;2.80;;;10.10;99.90;;;;;;5122765;27;20176;-78
2023/12/01 02:08:27;;;;;;;0.40;0.20;;;10.00;99.90;;;;;;5122279;27;20204;-79
2023/12/01 02:10:54;;;;;;;0.57;0.57;;;10.10;99.90;;;;;;5107144;28;20171;-79
2023/12/01 02:13:22;;;;;;;0.75;0.75;;;10.10;99.90;;;;;;5106715;28;20488;-79
2023/12/01 02:15:48;;;;;;;0.30;0.20;;;10.00;99.90;;;;;;5106947;28;20244;-79
2023/12/01 02:18:29;;;;;;;0.30;0.20;;;10.00;99.90;;;;;;5122375;27;20821;-79
2023/12/01 02:20:57;;;;;;;1.15;1.15;;;10.00;99.90;;;;;;5106623;28;20235;-78
2023/12/01 02:23:23;;;;;;;3.08;2.85;;;10.00;99.90;;;;;;5106905;28;20199;-78
2023/12/01 02:25:50;;;;;;;75.60;3.42;;;10.00;99.90;;;;;;5106540;28;20187;-78
2023/12/01 02:28:16;;;;;;;0.40;0.40;;;10.00;99.90;;;;;;5106134;28;20191;-79
2023/12/01 02:30:48;;;;;;;0.30;0.20;;;9.90;99.90;;;;;;5122500;27;20705;-78
2023/12/01 02:33:17;;;;;;;1.60;1.60;;;9.90;99.90;;;;;;5121998;27;20286;-80
2023/12/01 02:35:51;;;;;;;0.40;0.30;;;9.90;99.90;;;;;;5122632;27;20167;-79
2023/12/01 02:38:17;;;;;;;0.30;0.20;;;9.90;99.90;;;;;;5106215;28;20199;-78
2023/12/01 02:40:49;;;;;;;0.30;0.20;;;9.80;99.90;;;;;;5122281;27;20207;-78
2023/12/01 02:43:15;;;;;;;4.70;1.95;;;9.80;99.90;;;;;;5106060;28;20475;-80
2023/12/01 02:45:41;;;;;;;0.30;0.20;;;9.80;99.90;;;;;;5120921;27;20179;-78
2023/12/01 02:48:07;;;;;;;0.30;0.20;;;9.80;99.90;;;;;;5121544;27;20195;-77
2023/12/01 02:50:34;;;;;;;0.30;0.20;;;9.80;99.90;;;;;;5106496;28;20387;-78
2023/12/01 02:53:06;;;;;;;0.30;0.20;;;9.70;99.90;;;;;;5105886;28;20372;-78
2023/12/01 02:55:32;;;;;;;0.30;0.20;;;9.70;99.90;;;;;;5106417;28;20255;-77
2023/12/01 02:57:58;;;;;;;0.30;0.20;;;9.70;99.90;;;;;;5121470;27;20206;-79
2023/12/01 03:00:24;;;;;;;0.30;0.20;;;9.70;99.90;;;;;;5106279;28;20211;-77
2023/12/01 03:02:51;;;;;;;0.30;0.20;;;9.70;99.90;;;;;;5106382;28;20416;-78
2023/12/01 03:05:17;;;;;;;0.30;0.20;;;9.60;99.90;;;;;;5106267;28;20661;-76
2023/12/01 03:07:43;;;;;;;0.30;0.20;;;9.60;99.90;;;;;;5121163;27;20216;-77
2023/12/01 03:10:10;;;;;;;0.30;0.20;;;9.70;99.90;;;;;;5121917;27;20171;-77
2023/12/01 03:12:36;;;;;;;1.50;1.40;;;9.60;99.90;;;;;;5121250;28;20183;-78
2023/12/01 03:15:21;;;;;;;0.75;0.75;;;9.60;99.90;;;;;;5121883;28;20672;-78
2023/12/01 03:17:47;;;;;;;0.30;0.30;;;9.60;99.90;;;;;;5106027;28;20777;-77
2023/12/01 03:20:14;;;;;;;0.30;0.30;;;9.60;99.90;;;;;;5105809;28;20752;-78
2023/12/01 03:22:42;;;;;;;0.30;0.20;;;9.60;99.90;;;;;;5121621;28;20188;-78
2023/12/01 03:25:11;;;;;;;0.30;0.20;;;9.60;99.90;;;;;;5106432;28;20199;-77
2023/12/01 03:27:45;;;;;;;0.30;0.25;;;9.60;99.90;;;;;;5105322;28;20175;-76
2023/12/01 03:30:16;;;;;;;0.30;0.20;;;9.60;99.90;;;;;;5106135;28;20197;-78
2023/12/01 03:32:52;;;;;;;3.63;3.42;;;9.60;99.90;;;;;;5105564;28;20183;-78
2023/12/01 03:35:20;;;;;;;0.57;0.57;;;9.60;99.90;;;;;;5106505;28;20176;-77
2023/12/01 03:37:47;;;;;;;0.95;0.95;;;9.60;99.90;;;;;;5121294;28;20175;-77
2023/12/01 03:40:13;;;;;;;0.70;0.70;;;9.60;99.90;;;;;;5121536;28;20219;-78
2023/12/01 03:42:45;;;;;;;0.30;0.20;;;9.60;99.90;;;;;;5121318;28;20602;-78
2023/12/01 03:45:12;;;;;;;0.30;0.20;;;9.50;99.90;;;;;;5105924;28;20172;-77
2023/12/01 03:47:39;;;;;;;0.30;0.20;;;9.60;99.90;;;;;;5121163;28;20259;-77
2023/12/01 03:50:05;;;;;;;0.30;0.20;;;9.50;99.90;;;;;;5104713;28;20633;-78
2023/12/01 03:52:31;;;;;;;0.30;0.20;;;9.50;99.90;;;;;;5105611;28;20532;-78
2023/12/01 03:54:58;;;;;;;0.30;0.20;;;9.50;99.90;;;;;;5121669;28;20203;-77
2023/12/01 03:57:27;;;;;;;0.30;0.20;;;9.50;99.90;;;;;;5122595;27;20409;-78
2023/12/01 03:59:54;;;;;;;0.30;0.20;;;9.50;99.90;;;;;;5109708;28;20211;-78
2023/12/01 04:02:21;;;;;;;0.30;0.20;;;9.50;99.90;;;;;;5109506;28;20168;-77
2023/12/01 04:04:48;;;;;;;0.30;0.20;;;9.60;99.90;;;;;;5109197;28;20274;-77
2023/12/01 04:07:14;;;;;;;0.30;0.20;;;9.50;99.90;;;;;;5125172;27;20180;-79
2023/12/01 04:09:40;;;;;;;0.30;0.20;;;9.60;99.90;;;;;;5124748;27;20203;-79
2023/12/01 04:12:05;;;;;;;0.30;0.20;;;9.60;99.90;;;;;;5109370;28;20215;-77
2023/12/01 04:14:31;;;;;;;0.60;0.60;;;9.60;99.90;;;;;;5109084;28;20199;-78
2023/12/01 04:16:57;;;;;;;0.30;0.20;;;9.60;99.90;;;;;;5109017;28;20416;-79
2023/12/01 04:19:23;;;;;;;0.30;0.20;;;9.60;99.90;;;;;;5108788;28;20352;-78
2023/12/01 04:21:52;;;;;;;2.35;2.25;;;9.60;99.90;;;;;;5109377;28;20215;-77
2023/12/01 04:24:18;;;;;;;0.73;0.73;;;9.60;99.90;;;;;;5108913;28;20699;-77
2023/12/01 04:26:44;;;;;;;0.30;0.20;;;9.50;99.90;;;;;;5108532;28;20171;-78
2023/12/01 04:29:10;;;;;;;0.77;0.77;;;9.60;99.90;;;;;;5124548;27;20256;-76
2023/12/01 04:31:35;;;;;;;13.87;13.37;;;9.60;99.90;;;;;;5108920;28;20406;-77
2023/12/01 04:34:01;;;;;;;0.30;0.20;;;9.50;99.90;;;;;;5109032;28;20290;-77
2023/12/01 04:36:27;;;;;;;0.30;0.30;;;9.50;99.90;;;;;;5124640;27;20640;-78
2023/12/01 04:38:53;;;;;;;6.23;6.03;;;9.50;99.90;;;;;;5108391;28;20199;-77
2023/12/01 04:41:18;;;;;;;0.30;0.20;;;9.50;99.90;;;;;;5124612;27;20475;-77
2023/12/01 04:43:44;;;;;;;0.40;0.40;;;9.50;99.90;;;;;;5108468;28;20187;-79
2023/12/01 04:46:10;;;;;;;0.30;0.20;;;9.50;99.90;;;;;;5124152;27;20186;-78
2023/12/01 04:48:35;;;;;;;0.30;0.20;;;9.50;99.90;;;;;;5108240;28;20243;-77
2023/12/01 04:51:01;;;;;;;0.30;0.20;;;9.50;99.90;;;;;;5107717;28;20398;-77
2023/12/01 04:53:27;;;;;;;1.13;1.13;;;9.50;99.90;;;;;;5108255;28;20675;-77
2023/12/01 04:55:53;;;;;;;0.47;0.47;;;9.50;99.90;;;;;;5124177;27;20263;-78
2023/12/01 04:58:18;;;;;;;0.40;0.20;;;9.50;99.90;;;;;;5126282;27;20200;-79
2023/12/01 05:00:44;;;;;;;0.30;0.20;;;9.50;99.90;;;;;;5109807;28;20207;-78
2023/12/01 05:03:10;;;;;;;0.30;0.20;;;9.50;99.90;;;;;;5108043;28;20682;-78
2023/12/01 05:05:41;;;;;;;0.30;0.20;;;9.50;99.90;;;;;;5110496;28;20168;-78
2023/12/01 05:08:08;;;;;;;3.67;3.42;;;9.50;99.90;;;;;;5107636;28;21023;-79
2023/12/01 05:10:35;;;;;;;0.30;0.20;;;9.50;99.90;;;;;;5108234;27;20180;-77
2023/12/01 05:13:06;;;;;;;1.85;1.75;;;9.50;99.90;;;;;;5107960;27;20192;-77
2023/12/01 05:15:34;;;;;;;0.60;0.60;;;9.50;99.90;;;;;;5107479;28;20289;-77
2023/12/01 05:18:07;;;;;;;22.75;10.95;;;9.50;99.90;;;;;;5123386;27;20211;-79
2023/12/01 05:20:33;;;;;;;1.08;1.08;;;9.50;99.90;;;;;;5107898;28;20310;-79
2023/12/01 05:23:08;;;;;;;0.30;0.20;;;9.50;99.90;;;;;;5123495;27;21017;-76
2023/12/01 05:25:34;;;;;;;0.30;0.20;;;9.50;99.90;;;;;;5107682;28;20182;-77
2023/12/01 05:28:07;;;;;;;0.77;0.77;;;9.50;99.90;;;;;;5122903;27;20257;-79
2023/12/01 05:30:35;;;;;;;7.57;6.93;;;9.50;99.90;;;;;;5123460;27;20500;-76
2023/12/01 05:33:02;;;;;;;2.15;2.05;;;9.50;99.90;;;;;;5123028;27;20199;-76
2023/12/01 05:35:28;;;;;;;19.65;7.97;;;9.50;99.90;;;;;;5107765;27;20366;-79
2023/12/01 05:37:55;;;;;;;31.02;28.10;;;9.50;99.90;;;;;;5107439;28;20422;-76
2023/12/01 05:40:25;;;;;;;20.48;18.90;;;9.50;99.90;;;;;;5107484;28;20207;-79
2023/12/01 05:42:52;;;;;;;0.77;0.77;;;9.50;99.90;;;;;;5106838;28;20176;-79
2023/12/01 05:45:20;;;;;;;0.30;0.20;;;9.50;99.90;;;;;;5123243;27;20207;-79
2023/12/01 05:47:49;;;;;;;0.30;0.20;;;9.50;99.90;;;;;;5107247;28;20505;-79
2023/12/01 05:50:22;;;;;;;0.30;0.20;;;9.50;99.90;;;;;;5122205;27;20176;-77
2023/12/01 05:52:49;;;;;;;0.30;0.20;;;9.60;99.90;;;;;;5106900;28;20203;-77
2023/12/01 05:55:16;;;;;;;0.30;0.20;;;9.50;99.90;;;;;;5122793;27;20258;-78
2023/12/01 05:57:44;;;;;;;2.15;1.95;;;9.50;99.90;;;;;;5122375;27;20187;-84
2023/12/01 06:00:15;;;;;;;1.00;1.00;;;9.50;99.90;;;;;;5122849;27;20208;-78
2023/12/01 06:02:42;;;;;;;0.30;0.20;;;9.50;99.90;;;;;;5106576;28;20640;-79
2023/12/01 06:05:09;;;;;;;0.30;0.20;;;9.50;99.90;;;;;;5107316;28;20533;-79
2023/12/01 06:07:36;;;;;;;0.30;0.20;;;9.50;99.90;;;;;;5106988;28;20629;-85
2023/12/01 06:10:04;;;;;;;0.40;0.40;;;9.50;99.90;;;;;;5122738;27;20397;-84
2023/12/01 06:12:32;;;;;;;4.57;4.40;;;9.50;99.90;;;;;;5122425;27;20212;-85
2023/12/01 06:14:58;;;;;;;18.52;6.70;;;9.50;99.90;;;;;;5122132;27;20200;-79
2023/12/01 06:17:23;;;;;;;1.07;1.07;;;9.50;99.90;;;;;;5106932;28;20195;-84
2023/12/01 06:19:49;;;;;;;0.30;0.27;;;9.50;99.90;;;;;;5121098;27;20214;-79
2023/12/01 06:22:15;;;;;;;0.30;0.20;;;9.50;99.90;;;;;;5122349;27;20176;-78
2023/12/01 06:24:41;;;;;;;0.30;0.20;;;9.50;99.90;;;;;;5121835;27;20203;-80
2023/12/01 06:27:07;;;;;;;0.30;0.20;;;9.50;99.90;;;;;;5121976;27;20493;-77
2023/12/01 06:29:34;;;;;;;0.30;0.30;;;9.60;99.90;;;;;;5106216;28;20196;-81
2023/12/01 06:32:00;;;;;;;0.30;0.20;;;9.70;99.90;;;;;;5122148;27;20427;-80
2023/12/01 06:34:26;;;;;;;0.30;0.20;;;9.70;99.90;;;;;;5122558;27;20195;-76
2023/12/01 06:36:51;;;;;;;2.30;2.20;;;9.80;99.90;;;;;;5122158;27;20263;-80
2023/12/01 06:39:17;;;;;;;0.53;0.53;;;9.80;99.90;;;;;;5110168;27;20452;-76
2023/12/01 06:41:43;;;;;;;1.00;0.97;;;9.80;99.90;;;;;;5104916;28;20234;-81
2023/12/01 06:44:09;;;;;;;0.30;0.20;;;9.80;99.90;;;;;;5102745;28;20203;-80
2023/12/01 06:46:35;;;;;;;0.30;0.20;;;9.80;99.90;;;;;;5102610;28;20237;-76
2023/12/01 06:49:01;;;;;;;0.30;0.30;;;9.80;99.90;;;;;;5101717;28;20235;-76
2023/12/01 06:51:26;;;;;;;0.40;0.40;;;9.80;99.90;;;;;;5099435;28;20207;-80
2023/12/01 06:53:52;;;;;;;0.30;0.20;;;9.80;99.90;;;;;;5099372;28;20214;-76
2023/12/01 06:56:18;;;;;;;0.83;0.83;;;9.80;99.90;;;;;;5102803;27;20228;-76
2023/12/01 06:58:44;;;;;;;1.47;1.43;;;9.80;99.90;;;;;;5088532;28;20216;-80
2023/12/01 07:01:18;;;;;;;0.30;0.20;;;9.70;99.90;;;;;;5090992;27;20292;-80
2023/12/01 07:03:44;;;;;;;0.30;0.30;;;9.70;99.90;;;;;;5097796;27;20210;-75
2023/12/01 07:06:10;;;;;;;0.40;0.38;;;9.70;99.90;;;;;;5095404;28;20176;-76
2023/12/01 07:08:36;;;;;;;2.50;2.33;;;9.70;99.90;;;;;;5094941;27;20211;-80
2023/12/01 07:11:03;;;;;;;0.30;0.30;;;9.70;99.90;;;;;;5098397;28;20190;-76
2023/12/01 07:13:29;;;;;;;2.53;2.40;;;9.70;99.90;;;;;;5093110;28;20719;-76
2023/12/01 07:15:56;;;;;;;0.30;0.30;;;9.70;99.90;;;;;;5093833;28;20687;-80
2023/12/01 07:18:23;;;;;;;8.15;7.65;;;9.70;99.90;;;;;;5093087;27;20211;-75
2023/12/01 07:20:49;;;;;;;0.60;0.60;;;9.70;99.90;;;;;;5111014;28;20313;-76
2023/12/01 07:23:17;;;;;;;13.23;7.70;;;9.70;99.90;;;;;;5092236;27;20416;-80
2023/12/01 07:25:47;;;;;;;2.95;2.85;;;9.70;99.90;;;;;;5094274;28;20511;-78
2023/12/01 07:28:13;;;;;;;9.10;8.50;;;9.70;99.90;;;;;;5084424;28;20362;-80
2023/12/01 07:30:41;;;;;;;0.30;0.20;;;9.70;99.90;;;;;;5087483;28;20608;-75
2023/12/01 07:33:08;;;;;;;0.30;0.20;;;9.70;99.90;;;;;;5093422;27;20283;-81
2023/12/01 07:35:34;;;;;;;0.40;0.20;;;9.70;99.90;;;;;;5098904;27;20210;-76
2023/12/01 07:38:00;;;;;;;0.30;0.28;;;9.70;99.90;;;;;;5105516;27;20230;-76
2023/12/01 07:40:27;;;;;;;0.30;0.30;;;9.70;99.90;;;;;;5104281;27;20648;-80
2023/12/01 07:42:57;;;;;;;37.35;33.05;;;9.70;99.90;;;;;;5102204;27;20183;-80
2023/12/01 07:45:23;;;;;;;0.30;0.20;;;9.70;99.90;;;;;;5111985;27;20190;-81
2023/12/01 07:47:52;;;;;;;1.23;1.23;;;9.70;99.90;;;;;;5107420;27;20581;-81
2023/12/01 07:50:18;;;;;;;0.30;0.20;;;9.70;99.90;;;;;;5120133;27;20542;-80
2023/12/01 07:52:45;;;;;;;2.70;2.60;;;9.80;99.90;;;;;;5118266;27;20675;-80
2023/12/01 07:55:12;;;;;;;0.30;0.20;;;9.80;99.90;;;;;;5119286;27;20542;-81
2023/12/01 07:57:38;;;;;;;1.05;1.05;;;9.80;99.90;;;;;;5109656;27;20212;-76
2023/12/01 08:00:05;;;;;;;0.47;0.47;;;9.80;99.90;;;;;;5107646;27;20364;-80
2023/12/01 08:02:32;;;;;;;19.70;11.10;;;9.80;99.90;;;;;;5111355;27;20571;-81
2023/12/01 08:04:58;;;;;;;0.30;0.20;;;9.80;99.90;;;;;;5105093;27;20430;-80
2023/12/01 08:07:23;;;;;;;0.30;0.20;;;9.80;99.90;;;;;;5100441;27;20187;-81
2023/12/01 08:09:49;;;;;;;0.40;0.37;;;9.90;99.90;;;;;;5104554;27;20290;-82
2023/12/01 08:12:18;;;;;;;0.30;0.20;;;9.90;99.90;;;;;;5111067;27;20214;-80
2023/12/01 08:14:44;;;;;;;0.30;0.20;;;9.90;99.90;;;;;;5102604;27;20207;-76
2023/12/01 08:17:10;;;;;;;0.30;0.20;;;9.90;99.90;;;;;;5109927;27;20172;-77
2023/12/01 08:19:36;;;;;;;7.60;2.87;;;9.90;99.90;;;;;;5099273;27;20364;-76
2023/12/01 08:22:01;;;;;;;4.30;3.03;;;9.90;99.90;;;;;;5111827;27;20266;-76
2023/12/01 08:24:27;;;;;;;0.30;0.20;;;10.00;99.90;;;;;;5106460;27;20790;-76
2023/12/01 08:26:53;;;;;;;2.20;2.10;;;9.90;99.90;;;;;;5105221;27;20236;-81
2023/12/01 08:29:18;;;;;;;1.80;1.70;;;10.00;99.90;;;;;;5111441;27;20191;-81
2023/12/01 08:31:45;;;;;;;0.30;0.30;;;10.00;99.90;;;;;;5109373;27;20172;-75
2023/12/01 08:34:11;;;;;;;0.30;0.20;;;10.00;99.90;;;;;;5116256;27;20199;-77
2023/12/01 08:36:37;;;;;;;0.65;0.65;;;10.00;99.90;;;;;;5113549;27;20198;-76
2023/12/01 08:39:04;;;;;;;0.40;0.40;;;10.00;99.90;;;;;;5112797;27;20239;-81
2023/12/01 08:41:29;;;;;;;15.60;7.47;;;10.00;99.90;;;;;;5110848;27;20264;-76
2023/12/01 08:43:55;;;;;;;0.30;0.20;;;10.00;99.90;;;;;;5108057;27;20588;-81
2023/12/01 08:46:21;;;;;;;0.87;0.83;;;10.00;99.90;;;;;;5109038;27;20816;-81
2023/12/01 08:48:47;;;;;;;0.30;0.20;;;10.00;99.90;;;;;;5103100;27;20463;-81
2023/12/01 08:51:12;;;;;;;0.30;0.30;;;10.10;99.90;;;;;;5118680;27;20183;-81
2023/12/01 08:53:38;;;;;;;3.47;1.70;;;10.00;99.90;;;;;;5108255;27;20214;-75
2023/12/01 08:56:04;;;;;;;1.13;1.07;;;10.00;99.90;;;;;;5105250;27;20632;-81
2023/12/01 08:58:29;;;;;;;0.30;0.30;;;10.00;99.90;;;;;;5101317;27;20245;-81
2023/12/01 09:00:55;;;;;;;0.30;0.20;;;10.00;99.90;;;;;;5099258;27;20609;-81
2023/12/01 09:03:21;;;;;;;0.30;0.20;;;10.00;99.90;;;;;;5106462;27;20596;-76
2023/12/01 09:05:46;;;;;;;0.30;0.20;;;9.90;99.90;;;;;;5106644;27;20183;-75
2023/12/01 09:08:12;;;;;;;1.43;1.43;;;9.90;99.90;;;;;;5101720;27;20204;-76
2023/12/01 09:10:40;;;;;;;0.30;0.20;;;9.90;99.90;;;;;;5100393;27;20180;-76
2023/12/01 09:13:05;;;;;;;0.30;0.30;;;9.90;99.90;;;;;;5105788;27;20223;-76
2023/12/01 09:15:31;;;;;;;0.30;0.20;;;9.90;99.90;;;;;;5101369;27;20271;-80
2023/12/01 09:17:57;;;;;;;8.20;7.90;;;9.80;99.90;;;;;;5097220;27;20627;-76
2023/12/01 09:20:22;;;;;;;0.30;0.20;;;9.80;99.90;;;;;;5119844;27;20239;-76
2023/12/01 09:22:48;;;;;;;0.30;0.20;;;9.80;99.90;;;;;;5094409;27;20382;-75
2023/12/01 09:25:13;;;;;;;0.60;0.60;;;9.80;99.90;;;;;;5102534;27;20486;-75
2023/12/01 09:27:42;;;;;;;0.30;0.20;;;9.80;99.90;;;;;;5105426;27;20178;-75
2023/12/01 09:30:16;;;;;;;2.50;2.40;;;9.80;99.90;;;;;;5105208;27;20351;-76
2023/12/01 09:32:43;;;;;;;0.30;0.20;;;9.70;99.90;;;;;;5107858;27;20260;-80
2023/12/01 09:35:08;;;;;;;0.30;0.20;;;9.70;99.90;;;;;;5105326;27;20306;-75
2023/12/01 09:37:34;;;;;;;0.90;0.87;;;9.70;99.90;;;;;;5111581;27;20498;-76
2023/12/01 09:40:03;;;;;;;0.30;0.30;;;9.70;99.90;;;;;;5109120;27;20241;-79
2023/12/01 09:42:32;;;;;;;0.30;0.20;;;9.70;99.90;;;;;;5106579;27;20274;-75
2023/12/01 09:45:00;;;;;;;0.30;0.20;;;9.70;99.90;;;;;;5099805;27;20212;-80
2023/12/01 09:47:32;;;;;;;0.30;0.20;;;9.70;99.90;;;;;;5099360;27;20198;-76
2023/12/01 09:49:58;;;;;;;0.30;0.20;;;9.70;99.90;;;;;;5093573;27;20445;-80
2023/12/01 09:52:23;;;;;;;0.30;0.20;;;9.70;99.90;;;;;;5099064;27;20276;-75
2023/12/01 09:54:49;;;;;;;0.43;0.40;;;9.60;99.90;;;;;;5098243;27;20718;-76
2023/12/01 09:57:16;;;;;;;1.70;1.70;;;9.70;99.90;;;;;;5101303;27;20403;-75
2023/12/01 09:59:45;;;;;;;0.40;0.30;;;9.60;99.90;;;;;;5102129;27;20207;-80
2023/12/01 10:02:10;;;;;;;0.30;0.20;;;9.60;99.90;;;;;;5102625;27;20182;-80
2023/12/01 10:04:37;;;;;;;0.30;0.20;;;9.60;99.90;;;;;;5103077;27;20217;-75
2023/12/01 10:07:05;;;;;;;0.30;0.20;;;9.60;99.90;;;;;;5108412;27;20244;-75
2023/12/01 10:09:35;;;;;;;0.30;0.20;;;9.60;99.90;;;;;;5100232;27;20239;-75
2023/12/01 10:12:08;;;;;;;1.30;1.20;;;9.60;99.90;;;;;;5095839;27;20188;-80
2023/12/01 10:14:35;;;;;;;0.30;0.20;;;9.60;99.90;;;;;;5105332;27;20290;-80
2023/12/01 10:17:12;;;;;;;0.30;0.20;;;9.60;99.90;;;;;;5138348;27;20628;-82
2023/12/01 10:19:47;;;;;;;0.30;0.20;;;9.60;99.90;;;;;;5109627;27;20199;-77
2023/12/01 10:22:13;;;;;;;0.30;0.20;;;9.60;99.90;;;;;;5093732;28;20738;-82
2023/12/01 10:24:39;;;;;;;0.30;0.20;;;9.60;99.90;;;;;;5098396;28;20614;-82
2023/12/01 10:27:08;;;;;;;0.30;0.20;;;9.60;99.90;;;;;;5100666;28;20183;-82
2023/12/01 10:29:35;;;;;;;0.30;0.20;;;9.70;99.90;;;;;;5108437;27;20737;-77
2023/12/01 10:32:11;;;;;;;0.30;0.30;;;9.70;99.90;;;;;;5101922;28;20197;-82
2023/12/01 10:34:37;;;;;;;33.50;30.95;;;9.70;99.90;;;;;;5099425;27;20202;-77
2023/12/01 10:37:03;;;;;;;0.30;0.20;;;9.70;99.90;;;;;;5102015;28;20272;-77
2023/12/01 10:39:29;;;;;;;0.30;0.20;;;9.70;99.90;;;;;;5101510;28;20609;-82
2023/12/01 10:41:57;;;;;;;0.30;0.20;;;9.70;99.90;;;;;;5102850;28;20470;-77
2023/12/01 10:44:27;;;;;;;0.30;0.30;;;9.70;99.90;;;;;;5102898;28;20199;-82
2023/12/01 10:46:54;;;;;;;0.30;0.20;;;9.70;99.90;;;;;;5100362;28;20177;-77
2023/12/01 10:49:21;;;;;;;0.30;0.20;;;9.70;99.90;;;;;;5099390;28;20777;-77
2023/12/01 10:51:54;;;;;;;0.30;0.20;;;9.80;99.90;;;;;;5110932;28;20337;-77
2023/12/01 10:54:23;;;;;;;0.30;0.20;;;9.80;99.90;;;;;;5103004;28;20703;-78
2023/12/01 10:57:01;;;;;;;0.30;0.20;;;9.80;99.90;;;;;;5106552;28;20211;-82
2023/12/01 10:59:28;;;;;;;0.30;0.20;;;9.80;99.90;;;;;;5108896;27;20326;-75
2023/12/01 11:01:57;;;;;;;0.32;0.30;;;9.80;99.90;;;;;;5101347;28;21586;-80
2023/12/01 11:04:26;;;;;;;0.85;0.82;;;9.80;99.90;;;;;;5108822;28;20194;-75
2023/12/01 11:07:29;;;;;;;1.77;1.67;;;9.80;99.90;;;;;;5099244;28;20211;-80
2023/12/01 11:10:15;;;;;;;0.30;0.20;;;9.90;99.90;;;;;;5099131;28;20294;-80
2023/12/01 11:13:18;;;;;;;0.30;0.20;;;9.90;99.90;;;;;;5099623;28;20529;-78
2023/12/01 11:15:46;;;;;;;0.30;0.20;;;9.90;99.90;;;;;;5100697;27;20733;-80
2023/12/01 11:18:11;;;;;;;0.30;0.20;;;9.90;99.90;;;;;;5098787;28;20497;-78
2023/12/01 11:20:37;;;;;;;0.93;0.93;;;9.90;99.90;;;;;;5102646;28;20462;-79
2023/12/01 11:23:10;;;;;;;0.30;0.20;;;9.90;99.90;;;;;;5099443;27;20665;-78
2023/12/01 11:25:43;;;;;;;0.30;0.20;;;9.90;99.90;;;;;;5103794;28;20196;-78
2023/12/01 11:28:35;;;;;;;0.30;0.20;;;9.90;99.90;;;;;;5087728;28;20205;-80
2023/12/01 11:31:26;;;;;;;0.75;0.73;;;10.00;99.90;;;;;;5081558;28;20185;-75
2023/12/01 11:33:55;;;;;;;0.30;0.20;;;9.90;99.90;;;;;;5088209;28;20206;-76
2023/12/01 11:36:31;;;;;;;0.30;0.20;;;9.90;99.90;;;;;;5097272;28;20219;-76
2023/12/01 11:41:42;;;;;;;0.30;0.20;;;10.00;99.90;;;;;;5093966;28;20207;-80
2023/12/01 11:44:29;;;;;;;9.93;4.43;;;10.00;99.90;;;;;;5094119;28;20207;-81
2023/12/01 11:46:59;;;;;;;0.32;0.30;;;10.00;99.90;;;;;;5090492;28;20288;-76
2023/12/01 11:49:30;;;;;;;0.30;0.20;;;10.00;99.90;;;;;;5087807;28;20200;-81
2023/12/01 11:52:01;;;;;;;0.30;0.22;;;10.00;99.90;;;;;;5092436;28;20192;-82
2023/12/01 11:54:27;;;;;;;1.02;1.02;;;10.00;99.90;;;;;;5088530;28;20568;-76
2023/12/01 11:56:57;;;;;;;0.30;0.20;;;10.00;99.90;;;;;;5092745;28;20668;-76
2023/12/01 11:59:26;;;;;;;0.30;0.20;;;10.10;99.90;;;;;;5099032;28;20192;-75
2023/12/01 12:01:56;;;;;;;0.30;0.20;;;10.10;99.90;;;;;;5090709;28;20180;-75
2023/12/01 12:04:23;;;;;;;0.30;0.20;;;10.10;99.90;;;;;;5085763;28;20254;-76
2023/12/01 12:06:49;;;;;;;0.30;0.20;;;10.10;99.90;;;;;;5093684;28;20191;-80
2023/12/01 12:09:17;;;;;;;0.88;0.88;;;10.10;99.90;;;;;;5109434;27;20198;-76
2023/12/01 12:11:53;;;;;;;0.30;0.20;;;10.20;99.90;;;;;;5093162;28;20192;-80
2023/12/01 12:14:23;;;;;;;0.30;0.20;;;10.20;99.90;;;;;;5085094;28;20205;-76
2023/12/01 12:16:49;;;;;;;0.30;0.20;;;10.20;99.90;;;;;;5086122;28;20223;-75
2023/12/01 12:19:15;;;;;;;16.35;15.52;;;10.20;99.90;;;;;;5083609;28;20436;-76
2023/12/01 12:21:41;;;;;;;0.30;0.20;;;10.30;99.90;;;;;;5092523;28;20200;-76
2023/12/01 12:24:07;;;;;;;0.30;0.30;;;10.30;99.90;;;;;;5089534;28;20441;-76
2023/12/01 12:26:33;;;;;;;0.30;0.20;;;10.30;99.90;;;;;;5083093;28;20211;-76
2023/12/01 12:29:01;;;;;;;0.30;0.20;;;10.30;99.90;;;;;;5090207;28;20192;-80
2023/12/01 12:31:30;;;;;;;0.30;0.30;;;10.30;99.90;;;;;;5092050;28;20725;-76
2023/12/01 12:33:58;;;;;;;0.30;0.20;;;10.30;99.90;;;;;;5097302;28;20672;-76
2023/12/01 12:36:27;;;;;;;0.40;0.22;;;10.30;99.90;;;;;;5088400;28;20238;-80
2023/12/01 12:38:54;;;;;;;0.30;0.20;;;10.30;99.90;;;;;;5082904;28;20210;-75
2023/12/01 12:41:25;;;;;;;0.43;0.43;;;10.30;99.90;;;;;;5082010;28;20211;-80
2023/12/01 12:43:58;;;;;;;1.05;1.05;;;10.30;99.90;;;;;;5080159;28;20207;-80
2023/12/01 12:46:25;;;;;;;0.30;0.20;;;10.30;99.90;;;;;;5082293;28;20636;-80
2023/12/01 12:48:56;;;;;;;0.30;0.20;;;10.30;99.90;;;;;;5079814;28;20560;-75
2023/12/01 12:51:27;;;;;;;0.75;0.75;;;10.30;99.90;;;;;;5078228;28;20184;-80
2023/12/01 12:53:54;;;;;;;4.32;3.92;;;10.30;99.90;;;;;;5082117;28;20740;-81
2023/12/01 12:56:23;;;;;;;1.67;1.15;;;10.30;99.90;;;;;;5080613;28;20546;-76
2023/12/01 12:58:51;;;;;;;0.30;0.20;;;10.40;99.90;;;;;;5095004;28;20207;-76